createdAt,value
2019-02-05T00:02:21.471Z,42.40
2019-02-05T00:04:59.812Z,42.40
2019-02-05T00:07:33.907Z,42.50
2019-02-05T00:10:03.019Z,42.40
2019-02-05T00:12:32.211Z,42.40
2019-02-05T00:15:09.425Z,42.40
2019-02-05T00:18:14.512Z,42.50
2019-02-05T00:20:57.356Z,42.50
2019-02-05T00:23:26.378Z,42.60
2019-02-05T00:26:05.667Z,42.80
2019-02-05T00:28:27.186Z,42.50
2019-02-05T00:31:00.017Z,42.40
2019-02-05T00:33:51.761Z,42.40
2019-02-05T00:36:01.617Z,42.30
2019-02-05T00:38:59.163Z,42.30
2019-02-05T00:41:35.311Z,42.20
2019-02-05T00:44:04.830Z,42.30
2019-02-05T00:46:54.019Z,42.50
2019-02-05T00:49:41.533Z,42.50
2019-02-05T00:52:10.711Z,42.40
2019-02-05T00:54:40.540Z,42.50
2019-02-05T00:57:11.343Z,42.40
2019-02-05T00:59:40.430Z,42.50
2019-02-05T01:05:34.297Z,42.40
2019-02-05T01:08:18.052Z,42.40
2019-02-05T01:10:47.740Z,42.40
2019-02-05T01:13:28.078Z,42.40
2019-02-05T01:16:04.081Z,42.40
2019-02-05T01:18:37.817Z,42.40
2019-02-05T01:21:06.813Z,42.40
2019-02-05T01:23:37.478Z,42.30
2019-02-05T01:26:07.680Z,42.30
2019-02-05T01:28:36.850Z,42.30
2019-02-05T01:31:07.943Z,42.40
2019-02-05T01:33:46.779Z,42.40
2019-02-05T01:36:16.401Z,42.50
2019-02-05T01:38:54.797Z,42.40
2019-02-05T01:41:26.752Z,42.50
2019-02-05T01:46:39.821Z,42.50
2019-02-05T01:49:08.802Z,42.50
2019-02-05T01:51:41.061Z,42.40
2019-02-05T01:54:12.488Z,42.40
2019-02-05T01:56:45.240Z,42.40
2019-02-05T01:59:21.792Z,42.40
2019-02-05T02:01:50.794Z,42.30
2019-02-05T02:04:37.955Z,42.30
2019-02-05T02:06:58.250Z,42.40
2019-02-05T02:09:44.674Z,42.30
2019-02-05T02:12:13.712Z,42.30
2019-02-05T02:14:43.469Z,42.20
2019-02-05T02:17:24.111Z,42.30
2019-02-05T02:19:53.332Z,42.30
2019-02-05T02:22:25.470Z,42.20
2019-02-05T02:24:56.459Z,42.30
2019-02-05T02:27:25.398Z,42.20
2019-02-05T02:29:54.347Z,42.10
2019-02-05T02:32:23.320Z,42.10
2019-02-05T02:34:55.411Z,42.10
2019-02-05T02:37:24.774Z,42.20
2019-02-05T02:39:54.063Z,42.20
2019-02-05T02:42:23.953Z,42.20
2019-02-05T02:44:53.460Z,42.10
2019-02-05T02:47:27.749Z,42.10
2019-02-05T02:50:03.402Z,42.80
2019-02-05T02:52:50.230Z,42.00
2019-02-05T02:55:19.541Z,42.20
2019-02-05T02:58:09.151Z,42.00
2019-02-05T03:00:58.939Z,42.00
2019-02-05T03:03:41.940Z,42.00
2019-02-05T03:06:11.041Z,42.10
2019-02-05T03:09:10.627Z,42.00
2019-02-05T03:11:41.965Z,42.00
2019-02-05T03:14:11.159Z,42.00
2019-02-05T03:16:40.088Z,42.00
2019-02-05T03:19:09.472Z,42.00
2019-02-05T03:21:42.441Z,42.00
2019-02-05T03:28:00.032Z,42.00
2019-02-05T03:31:03.414Z,42.00
2019-02-05T03:33:32.863Z,41.90
2019-02-05T03:36:02.179Z,41.80
2019-02-05T03:38:33.321Z,41.80
2019-02-05T03:41:03.793Z,41.80
2019-02-05T03:43:36.659Z,41.70
2019-02-05T03:46:07.176Z,41.70
2019-02-05T03:48:36.183Z,41.70
2019-02-05T03:51:27.073Z,41.60
2019-02-05T03:54:26.072Z,41.60
2019-02-05T03:57:13.212Z,41.60
2019-02-05T04:00:13.841Z,41.60
2019-02-05T04:06:00.083Z,41.60
2019-02-05T04:09:19.555Z,41.70
2019-02-05T04:12:12.032Z,41.60
2019-02-05T04:15:10.158Z,41.70
2019-02-05T04:17:53.975Z,41.60
2019-02-05T04:21:25.328Z,41.60
2019-02-05T04:24:33.498Z,41.60
2019-02-05T04:28:01.169Z,41.60
2019-02-05T04:34:38.757Z,41.70
2019-02-05T04:38:00.066Z,41.70
2019-02-05T04:41:28.671Z,41.60
2019-02-05T04:44:22.759Z,41.70
2019-02-05T04:47:42.371Z,41.80
2019-02-05T04:54:28.914Z,41.80
2019-02-05T04:57:24.019Z,41.80
2019-02-05T05:00:22.737Z,41.80
2019-02-05T05:03:27.910Z,41.80
2019-02-05T05:06:21.473Z,41.70
2019-02-05T05:09:26.007Z,41.70
2019-02-05T05:12:17.058Z,41.70
2019-02-05T05:18:15.502Z,41.70
2019-02-05T05:20:56.249Z,41.70
2019-02-05T05:23:25.268Z,41.70
2019-02-05T05:25:55.765Z,41.70
2019-02-05T05:28:37.351Z,41.70
2019-02-05T05:31:24.306Z,41.70
2019-02-05T05:33:53.479Z,41.70
2019-02-05T05:36:41.908Z,41.60
2019-02-05T05:39:11.994Z,41.60
2019-02-05T05:42:02.634Z,41.70
2019-02-05T05:44:32.156Z,41.60
2019-02-05T05:47:01.738Z,41.60
2019-02-05T05:50:00.880Z,41.50
2019-02-05T05:52:30.250Z,41.50
2019-02-05T05:54:59.595Z,41.50
2019-02-05T05:57:29.100Z,41.60
2019-02-05T06:00:00.876Z,41.50
2019-02-05T06:02:45.980Z,41.50
2019-02-05T06:05:39.611Z,41.50
2019-02-05T06:08:09.593Z,41.50
2019-02-05T06:10:42.888Z,41.40
2019-02-05T06:13:36.566Z,41.50
2019-02-05T06:16:05.565Z,41.60
2019-02-05T06:18:36.540Z,41.70
2019-02-05T06:21:21.487Z,41.70
2019-02-05T06:24:31.099Z,41.80
2019-02-05T06:27:00.462Z,41.70
2019-02-05T06:32:31.130Z,41.70
2019-02-05T06:35:22.877Z,41.70
2019-02-05T06:40:41.881Z,41.70
2019-02-05T06:43:10.788Z,41.80
2019-02-05T06:45:41.632Z,41.90
2019-02-05T06:51:02.628Z,41.90
2019-02-05T06:53:31.900Z,41.90
2019-02-05T06:56:08.874Z,41.90
2019-02-05T06:58:46.495Z,41.90
2019-02-05T07:01:33.170Z,42.00
2019-02-05T07:04:02.634Z,42.10
2019-02-05T07:06:33.384Z,42.10
2019-02-05T07:09:04.456Z,42.10
2019-02-05T07:11:33.557Z,42.70
2019-02-05T07:14:03.105Z,42.10
2019-02-05T07:16:36.984Z,42.10
2019-02-05T07:19:06.057Z,42.00
2019-02-05T07:21:35.044Z,41.90
2019-02-05T07:24:26.952Z,41.90
2019-02-05T07:27:00.232Z,41.90
2019-02-05T07:29:31.699Z,42.20
2019-02-05T07:32:06.121Z,42.00
2019-02-05T07:34:35.218Z,42.10
2019-02-05T07:37:12.108Z,42.20
2019-02-05T07:42:29.765Z,42.60
2019-02-05T07:45:27.380Z,42.60
2019-02-05T07:48:01.113Z,42.60
2019-02-05T07:50:33.853Z,42.60
2019-02-05T07:53:05.671Z,42.70
2019-02-05T07:55:38.770Z,42.50
2019-02-05T07:58:09.244Z,42.30
2019-02-05T08:01:05.802Z,42.30
2019-02-05T08:03:35.314Z,42.30
2019-02-05T08:06:21.973Z,42.40
2019-02-05T08:08:51.324Z,42.40
2019-02-05T08:11:28.777Z,42.30
2019-02-05T08:13:58.011Z,42.50
2019-02-05T08:16:27.528Z,42.40
2019-02-05T08:18:56.435Z,42.50
2019-02-05T08:21:42.199Z,42.50
2019-02-05T08:24:11.582Z,42.40
2019-02-05T08:26:40.649Z,42.40
2019-02-05T08:29:21.414Z,42.20
2019-02-05T08:31:51.840Z,42.10
2019-02-05T08:34:20.815Z,41.90
2019-02-05T08:36:49.820Z,41.70
2019-02-05T08:39:19.087Z,41.60
2019-02-05T08:41:48.287Z,41.40
2019-02-05T08:44:17.421Z,41.40
2019-02-05T08:46:51.053Z,41.20
2019-02-05T08:49:26.730Z,41.20
2019-02-05T08:51:57.811Z,41.20
2019-02-05T08:54:27.555Z,41.50
2019-02-05T08:57:04.473Z,41.70
2019-02-05T08:59:35.171Z,42.00
2019-02-05T09:02:13.246Z,42.30
2019-02-05T09:04:43.560Z,42.30
2019-02-05T09:07:13.388Z,42.50
2019-02-05T09:09:45.919Z,42.60
2019-02-05T09:12:18.153Z,42.70
2019-02-05T09:14:47.180Z,42.90
2019-02-05T09:17:18.668Z,42.80
2019-02-05T09:19:49.876Z,43.00
2019-02-05T09:22:43.684Z,43.00
2019-02-05T09:25:12.916Z,43.20
2019-02-05T09:27:45.295Z,43.30
2019-02-05T09:30:31.001Z,43.30
2019-02-05T09:33:08.033Z,43.40
2019-02-05T09:35:37.692Z,43.40
2019-02-05T09:38:10.547Z,43.50
2019-02-05T09:40:39.629Z,43.70
2019-02-05T09:43:10.562Z,43.80
2019-02-05T09:45:43.231Z,43.90
2019-02-05T09:48:15.498Z,43.90
2019-02-05T09:50:45.281Z,44.00
2019-02-05T09:53:14.372Z,44.00
2019-02-05T09:55:46.063Z,44.00
2019-02-05T09:58:15.312Z,44.30
2019-02-05T10:00:46.719Z,44.00
2019-02-05T10:03:15.921Z,43.90
2019-02-05T10:05:47.017Z,43.90
2019-02-05T10:08:38.187Z,43.90
2019-02-05T10:11:12.124Z,43.90
2019-02-05T10:13:42.996Z,43.80
2019-02-05T10:18:51.484Z,43.70
2019-02-05T10:21:20.581Z,43.90
2019-02-05T10:23:49.985Z,44.20
2019-02-05T10:26:20.104Z,44.40
2019-02-05T10:28:50.226Z,44.70
2019-02-05T10:31:19.657Z,44.80
2019-02-05T10:37:01.279Z,45.00
2019-02-05T10:42:36.852Z,45.20
2019-02-05T10:45:07.179Z,45.80
2019-02-05T10:47:39.194Z,45.20
2019-02-05T10:50:12.641Z,45.10
2019-02-05T10:55:51.826Z,45.10
2019-02-05T10:58:43.766Z,45.30
2019-02-05T11:01:12.786Z,45.20
2019-02-05T11:03:42.039Z,45.30
2019-02-05T11:06:11.040Z,45.30
2019-02-05T11:08:41.502Z,45.20
2019-02-05T11:11:38.840Z,45.30
2019-02-05T11:14:30.113Z,45.10
2019-02-05T11:16:59.723Z,45.70
2019-02-05T11:19:28.752Z,45.00
2019-02-05T11:21:57.983Z,45.00
2019-02-05T11:24:27.071Z,45.10
2019-02-05T11:26:59.969Z,45.00
2019-02-05T11:29:29.521Z,44.90
2019-02-05T11:32:53.087Z,44.80
2019-02-05T11:34:36.691Z,44.90
2019-02-05T11:39:52.513Z,44.60
2019-02-05T11:42:42.812Z,44.70
2019-02-05T11:45:13.285Z,44.70
2019-02-05T11:47:44.152Z,44.70
2019-02-05T11:50:20.813Z,45.00
2019-02-05T11:52:50.263Z,44.90
2019-02-05T11:55:22.064Z,45.00
2019-02-05T11:58:05.230Z,44.80
2019-02-05T12:00:46.412Z,44.70
2019-02-05T12:03:16.091Z,44.70
2019-02-05T12:05:52.785Z,45.30
2019-02-05T12:08:21.789Z,44.80
2019-02-05T12:10:50.975Z,44.70
2019-02-05T12:13:23.134Z,44.70
2019-02-05T12:16:08.549Z,44.70
2019-02-05T12:19:02.350Z,44.70
2019-02-05T12:21:31.764Z,44.60
2019-02-05T12:24:04.112Z,44.90
2019-02-05T12:31:56.955Z,44.60
2019-02-05T12:34:41.980Z,44.50
2019-02-05T12:37:11.609Z,44.60
2019-02-05T12:39:48.218Z,44.60
2019-02-05T12:42:36.725Z,44.60
2019-02-05T12:45:25.094Z,44.60
2019-02-05T12:47:54.081Z,44.70
2019-02-05T12:52:59.259Z,44.70
2019-02-05T12:55:28.895Z,44.10
2019-02-05T12:58:21.588Z,44.60
2019-02-05T13:00:59.137Z,44.70
2019-02-05T13:03:24.632Z,44.60
2019-02-05T13:05:59.671Z,44.60
2019-02-05T13:08:28.633Z,44.60
2019-02-05T13:11:18.846Z,44.60
2019-02-05T13:13:50.635Z,44.70
2019-02-05T13:16:20.798Z,44.60
2019-02-05T13:22:03.212Z,44.70
2019-02-05T13:24:35.924Z,44.70
2019-02-05T13:27:21.601Z,44.70
2019-02-05T13:30:00.118Z,44.50
2019-02-05T13:35:29.075Z,44.50
2019-02-05T13:37:59.335Z,44.50
2019-02-05T13:40:31.290Z,44.50
2019-02-05T13:46:26.544Z,44.40
2019-02-05T13:49:04.679Z,44.40
2019-02-05T13:51:33.708Z,44.40
2019-02-05T13:54:02.857Z,44.40
2019-02-05T13:56:32.266Z,44.30
2019-02-05T13:59:01.532Z,44.40
2019-02-05T14:01:47.043Z,44.30
2019-02-05T14:04:45.441Z,45.00
2019-02-05T14:07:14.496Z,44.30
2019-02-05T14:09:43.683Z,44.30
2019-02-05T14:12:13.022Z,44.20
2019-02-05T14:14:45.571Z,44.30
2019-02-05T14:17:18.885Z,44.20
2019-02-05T14:19:49.802Z,44.10
2019-02-05T14:22:20.768Z,44.10
2019-02-05T14:28:15.170Z,44.00
2019-02-05T14:30:58.411Z,44.00
2019-02-05T14:33:33.951Z,43.90
2019-02-05T14:36:02.045Z,43.90
2019-02-05T14:39:00.551Z,43.90
2019-02-05T14:44:44.436Z,43.80
2019-02-05T14:47:13.504Z,43.80
2019-02-05T14:49:42.917Z,43.90
2019-02-05T14:52:17.756Z,43.80
2019-02-05T14:54:46.793Z,43.80
2019-02-05T14:57:16.099Z,43.80
2019-02-05T15:00:07.927Z,43.70
2019-02-05T15:02:39.856Z,43.70
2019-02-05T15:05:13.870Z,43.60
2019-02-05T15:08:02.209Z,43.70
2019-02-05T15:10:31.672Z,43.70
2019-02-05T15:13:11.195Z,43.70
2019-02-05T15:15:40.905Z,43.70
2019-02-05T15:18:12.982Z,43.70
2019-02-05T15:23:39.398Z,43.70
2019-02-05T15:26:15.297Z,43.60
2019-02-05T15:28:44.395Z,43.70
2019-02-05T15:31:13.565Z,44.30
2019-02-05T15:33:59.683Z,43.70
2019-02-05T15:36:33.921Z,43.70
2019-02-05T15:39:16.141Z,43.70
2019-02-05T15:41:52.646Z,43.60
2019-02-05T15:44:38.374Z,43.50
2019-02-05T15:47:17.026Z,43.60
2019-02-05T15:49:46.318Z,43.70
2019-02-05T15:52:16.914Z,43.80
2019-02-05T15:54:46.213Z,43.80
2019-02-05T15:57:17.544Z,43.80
2019-02-05T15:59:47.889Z,43.80
2019-02-05T16:02:28.811Z,43.80
2019-02-05T16:07:51.316Z,43.70
2019-02-05T16:13:36.569Z,43.60
2019-02-05T16:16:13.989Z,43.50
2019-02-05T16:18:43.341Z,43.60
2019-02-05T16:21:14.685Z,43.50
2019-02-05T16:23:46.873Z,43.50
2019-02-05T16:26:19.933Z,43.70
2019-02-05T16:28:49.343Z,43.50
2019-02-05T16:31:18.562Z,43.60
2019-02-05T16:34:02.480Z,43.70
2019-02-05T16:39:20.580Z,43.60
2019-02-05T16:41:49.926Z,43.50
2019-02-05T16:44:28.128Z,43.60
2019-02-05T17:14:29.655Z,44.40
2019-02-05T17:16:58.952Z,44.60
2019-02-05T17:19:31.833Z,44.60
2019-02-05T17:25:17.351Z,44.40
2019-02-05T17:27:54.290Z,44.30
2019-02-05T17:30:27.928Z,44.20
2019-02-05T17:32:59.824Z,44.40
2019-02-05T17:35:35.456Z,44.60
2019-02-05T17:38:05.933Z,45.00
2019-02-05T17:40:39.669Z,45.80
2019-02-05T17:43:16.183Z,46.30
2019-02-05T17:45:54.439Z,46.60
2019-02-05T17:48:27.604Z,47.20
2019-02-05T17:51:04.276Z,46.70
2019-02-05T17:53:59.028Z,45.90
2019-02-05T17:56:41.934Z,45.50
2019-02-05T17:59:27.831Z,45.20
2019-02-05T18:01:57.320Z,45.20
2019-02-05T18:04:27.249Z,45.40
2019-02-05T18:07:11.147Z,45.60
2019-02-05T18:09:58.507Z,45.50
2019-02-05T18:12:33.562Z,45.40
2019-02-05T18:15:14.223Z,45.20
2019-02-05T18:17:44.599Z,45.00
2019-02-05T18:20:17.094Z,44.90
2019-02-05T18:22:51.850Z,44.80
2019-02-05T18:25:29.147Z,44.80
2019-02-05T18:31:19.347Z,44.80
2019-02-05T18:39:36.101Z,44.70
2019-02-05T18:42:08.513Z,44.80
2019-02-05T18:44:48.086Z,44.90
2019-02-05T18:47:18.711Z,44.80
2019-02-05T18:49:47.984Z,44.60
2019-02-05T18:52:17.295Z,44.50
2019-02-05T18:54:46.705Z,44.30
2019-02-05T18:57:15.930Z,44.20
2019-02-05T18:59:45.216Z,44.00
2019-02-05T19:02:17.233Z,43.80
2019-02-05T19:04:48.170Z,43.80
2019-02-05T19:07:17.884Z,43.50
2019-02-05T19:09:47.334Z,43.40
2019-02-05T19:12:18.144Z,43.30
2019-02-05T19:14:47.324Z,43.10
2019-02-05T19:20:09.220Z,43.00
2019-02-05T19:22:41.284Z,43.10
2019-02-05T19:25:18.348Z,43.00
2019-02-05T19:27:49.976Z,43.00
2019-02-05T19:30:43.682Z,43.00
2019-02-05T19:33:13.621Z,42.80
2019-02-05T19:35:47.071Z,42.80
2019-02-05T19:38:40.410Z,42.70
2019-02-05T19:41:27.592Z,42.50
2019-02-05T19:43:56.998Z,42.30
2019-02-05T19:46:58.323Z,42.10
2019-02-05T19:49:32.594Z,42.10
2019-02-05T19:52:10.159Z,42.00
2019-02-05T19:57:31.923Z,41.70
2019-02-05T20:02:46.397Z,41.50
2019-02-05T20:05:15.590Z,41.50
2019-02-05T20:07:45.072Z,41.30
2019-02-05T20:13:00.134Z,41.20
2019-02-05T20:15:29.460Z,41.20
2019-02-05T20:18:09.040Z,41.10
2019-02-05T20:20:38.277Z,41.10
2019-02-05T20:23:08.377Z,41.10
2019-02-05T20:28:26.318Z,41.30
2019-02-05T20:53:48.825Z,42.10
2019-02-05T20:56:17.935Z,42.30
2019-02-05T20:58:46.898Z,42.30
2019-02-05T21:01:15.975Z,42.30
2019-02-05T21:06:21.370Z,42.10
2019-02-05T21:08:50.751Z,42.10
2019-02-05T21:11:25.755Z,42.10
2019-02-05T21:13:50.483Z,42.10
2019-02-05T21:16:23.660Z,42.20
2019-02-05T21:19:07.957Z,42.20
2019-02-05T21:21:37.200Z,42.20
2019-02-05T21:24:10.187Z,42.20
2019-02-05T21:26:39.651Z,42.20
2019-02-05T21:29:14.595Z,42.30
2019-02-05T21:31:40.906Z,42.40
2019-02-05T21:34:15.914Z,42.50
2019-02-05T21:36:44.269Z,42.60
2019-02-05T23:02:10.900Z,44.10
2019-02-05T23:05:20.532Z,44.00
2019-02-05T23:07:49.927Z,44.40
2019-02-05T23:11:03.409Z,43.60
2019-02-05T23:13:30.148Z,43.60
2019-02-05T23:16:02.124Z,43.70
2019-02-05T23:18:31.199Z,43.40
2019-02-05T23:21:00.303Z,43.40
2019-02-05T23:23:29.354Z,43.20
2019-02-05T23:25:59.488Z,43.10
2019-02-05T23:28:28.582Z,43.10
2019-02-05T23:31:18.231Z,43.00
2019-02-05T23:33:47.171Z,43.00
2019-02-05T23:36:16.332Z,42.90
2019-02-05T23:38:45.235Z,42.90
2019-02-05T23:41:14.572Z,42.90
2019-02-05T23:43:45.313Z,42.80
2019-02-05T23:46:39.159Z,42.70
2019-02-05T23:49:12.038Z,42.70
2019-02-05T23:51:41.139Z,42.70
2019-02-05T23:54:26.549Z,42.60
2019-02-05T23:56:56.134Z,42.70
2019-02-05T23:59:26.948Z,42.70
